createdAt,value
2019-01-30T00:02:03.742Z,16.82
2019-01-30T00:04:34.551Z,17.92
2019-01-30T00:07:03.956Z,12.53
2019-01-30T00:09:33.226Z,13.50
2019-01-30T00:12:02.875Z,12.75
2019-01-30T00:14:32.147Z,12.10
2019-01-30T00:17:01.400Z,12.47
2019-01-30T00:19:31.022Z,13.45
2019-01-30T00:22:00.470Z,10.38
2019-01-30T00:24:30.290Z,11.63
2019-01-30T00:26:59.568Z,14.98
2019-01-30T00:29:32.157Z,13.05
2019-01-30T00:32:01.446Z,11.88
2019-01-30T00:34:30.770Z,10.75
2019-01-30T00:37:00.519Z,16.23
2019-01-30T00:39:29.766Z,12.50
2019-01-30T00:41:59.074Z,12.93
2019-01-30T00:44:28.350Z,11.60
2019-01-30T00:46:57.646Z,11.12
2019-01-30T00:49:27.232Z,12.85
2019-01-30T00:51:56.631Z,10.78
2019-01-30T00:54:32.027Z,13.40
2019-01-30T00:56:57.233Z,14.87
2019-01-30T00:59:26.634Z,9.93
2019-01-30T01:01:55.966Z,11.50
2019-01-30T01:04:25.491Z,9.13
2019-01-30T01:06:54.966Z,12.43
2019-01-30T01:09:24.210Z,13.55
2019-01-30T01:11:53.816Z,8.23
2019-01-30T01:14:23.267Z,10.60
2019-01-30T01:16:52.552Z,11.30
2019-01-30T01:19:22.106Z,10.93
2019-01-30T01:21:51.596Z,9.08
2019-01-30T01:24:20.963Z,7.92
2019-01-30T01:26:50.375Z,11.57
2019-01-30T01:29:19.790Z,9.65
2019-01-30T01:31:49.063Z,11.90
2019-01-30T01:34:18.338Z,7.85
2019-01-30T01:36:47.710Z,13.32
2019-01-30T01:39:17.250Z,10.03
2019-01-30T01:41:46.643Z,9.43
2019-01-30T01:44:15.988Z,10.75
2019-01-30T01:46:45.776Z,11.12
2019-01-30T01:49:15.168Z,12.23
2019-01-30T01:51:44.484Z,11.78
2019-01-30T01:54:14.515Z,7.90
2019-01-30T01:56:43.931Z,12.88
2019-01-30T01:59:13.391Z,12.18
2019-01-30T02:01:42.691Z,12.15
2019-01-30T02:04:12.615Z,12.28
2019-01-30T02:06:42.648Z,11.30
2019-01-30T02:09:12.002Z,10.68
2019-01-30T02:11:41.822Z,11.45
2019-01-30T02:14:11.256Z,13.08
2019-01-30T02:16:40.568Z,13.45
2019-01-30T02:19:09.871Z,13.40
2019-01-30T02:21:39.658Z,15.58
2019-01-30T02:24:08.994Z,15.55
2019-01-30T02:26:38.262Z,11.30
2019-01-30T02:29:07.587Z,21.42
2019-01-30T02:31:37.194Z,14.38
2019-01-30T02:34:06.461Z,13.10
2019-01-30T02:36:54.866Z,16.02
2019-01-30T02:39:24.582Z,13.03
2019-01-30T02:41:54.297Z,13.38
2019-01-30T02:44:24.378Z,16.02
2019-01-30T02:46:53.977Z,12.43
2019-01-30T02:49:23.298Z,12.15
2019-01-30T02:51:52.876Z,13.43
2019-01-30T02:54:22.152Z,13.90
2019-01-30T02:56:51.694Z,11.57
2019-01-30T02:59:20.991Z,18.98
2019-01-30T03:01:58.298Z,14.63
2019-01-30T03:04:27.683Z,12.07
2019-01-30T03:06:56.974Z,12.58
2019-01-30T03:09:26.260Z,12.23
2019-01-30T03:11:55.736Z,9.68
2019-01-30T03:14:25.118Z,12.10
2019-01-30T03:16:54.400Z,11.60
2019-01-30T03:19:24.011Z,11.40
2019-01-30T03:21:53.314Z,14.60
2019-01-30T03:24:22.619Z,15.38
2019-01-30T03:26:51.869Z,12.05
2019-01-30T03:29:21.395Z,11.90
2019-01-30T03:31:50.819Z,12.25
2019-01-30T03:34:20.329Z,21.40
2019-01-30T03:36:49.718Z,15.20
2019-01-30T03:39:19.063Z,10.23
2019-01-30T03:41:48.318Z,14.47
2019-01-30T03:44:18.036Z,13.35
2019-01-30T03:46:47.374Z,16.32
2019-01-30T03:49:17.038Z,12.63
2019-01-30T03:51:46.456Z,16.30
2019-01-30T03:54:15.807Z,11.25
2019-01-30T03:56:45.238Z,13.83
2019-01-30T03:59:14.555Z,15.78
2019-01-30T04:01:43.858Z,12.35
2019-01-30T04:04:13.534Z,14.23
2019-01-30T04:06:42.879Z,12.50
2019-01-30T04:09:12.161Z,11.65
2019-01-30T04:11:41.549Z,17.95
2019-01-30T04:14:10.912Z,12.95
2019-01-30T04:16:40.278Z,13.80
2019-01-30T04:19:09.851Z,12.20
2019-01-30T04:21:39.230Z,11.18
2019-01-30T04:24:08.570Z,11.28
2019-01-30T04:26:38.052Z,10.98
2019-01-30T04:29:07.406Z,16.42
2019-01-30T04:31:38.297Z,14.30
2019-01-30T04:34:07.707Z,12.18
2019-01-30T04:36:37.345Z,15.28
2019-01-30T04:39:08.426Z,10.68
2019-01-30T04:41:38.132Z,14.87
2019-01-30T04:44:07.507Z,11.97
2019-01-30T04:46:37.067Z,14.78
2019-01-30T04:49:06.387Z,12.05
2019-01-30T04:51:35.938Z,12.82
2019-01-30T04:54:05.493Z,16.75
2019-01-30T04:56:34.777Z,14.05
2019-01-30T04:59:04.353Z,20.68
2019-01-30T05:01:33.699Z,16.77
2019-01-30T05:04:03.099Z,14.58
2019-01-30T05:06:32.564Z,21.55
2019-01-30T05:09:02.061Z,12.00
2019-01-30T05:11:31.233Z,13.50
2019-01-30T05:14:01.484Z,15.98
2019-01-30T05:16:32.258Z,13.85
2019-01-30T05:19:01.593Z,15.23
2019-01-30T05:21:31.319Z,17.32
2019-01-30T05:24:00.561Z,16.75
2019-01-30T05:26:29.912Z,12.20
2019-01-30T05:28:59.170Z,14.73
2019-01-30T05:31:28.907Z,14.35
2019-01-30T05:33:58.292Z,15.32
2019-01-30T05:36:27.606Z,17.32
2019-01-30T05:38:57.254Z,15.58
2019-01-30T05:41:26.653Z,15.50
2019-01-30T05:43:56.117Z,21.85
2019-01-30T05:46:25.394Z,15.20
2019-01-30T05:48:54.800Z,19.62
2019-01-30T05:51:24.129Z,22.07
2019-01-30T05:53:53.393Z,16.82
2019-01-30T05:56:23.251Z,23.05
2019-01-30T05:58:54.839Z,16.57
2019-01-30T06:01:24.266Z,18.65
2019-01-30T06:03:53.585Z,19.00
2019-01-30T06:06:24.078Z,16.57
2019-01-30T06:08:53.541Z,20.52
2019-01-30T06:11:24.654Z,21.82
2019-01-30T06:13:54.367Z,21.02
2019-01-30T06:16:25.538Z,19.85
2019-01-30T06:18:55.282Z,19.35
2019-01-30T06:21:24.614Z,27.25
2019-01-30T06:23:54.960Z,31.00
2019-01-30T06:26:24.467Z,26.33
2019-01-30T06:28:53.740Z,24.45
2019-01-30T06:31:29.120Z,23.10
2019-01-30T06:34:00.469Z,20.85
2019-01-30T06:36:30.042Z,25.35
2019-01-30T06:38:59.888Z,21.73
2019-01-30T06:41:29.530Z,24.77
2019-01-30T06:43:58.881Z,23.35
2019-01-30T06:46:28.518Z,21.62
2019-01-30T06:48:57.846Z,31.27
2019-01-30T06:51:27.315Z,27.58
2019-01-30T06:53:56.646Z,25.62
2019-01-30T06:56:25.972Z,24.07
2019-01-30T06:58:57.351Z,26.48
2019-01-30T07:01:26.608Z,30.85
2019-01-30T07:03:56.351Z,33.08
2019-01-30T07:06:25.607Z,38.70
2019-01-30T07:08:55.357Z,28.57
2019-01-30T07:11:26.263Z,34.88
2019-01-30T07:13:57.022Z,30.12
2019-01-30T07:16:26.871Z,32.58
2019-01-30T07:18:56.707Z,26.45
2019-01-30T07:21:26.332Z,38.38
2019-01-30T07:23:55.592Z,33.85
2019-01-30T07:26:25.183Z,41.02
2019-01-30T07:28:54.533Z,30.68
2019-01-30T07:31:24.091Z,36.90
2019-01-30T07:33:53.582Z,38.00
2019-01-30T07:36:22.963Z,36.75
2019-01-30T07:38:52.527Z,41.28
2019-01-30T07:41:21.818Z,38.75
2019-01-30T07:43:51.070Z,37.15
2019-01-30T07:46:20.824Z,33.38
2019-01-30T07:48:50.186Z,34.60
2019-01-30T07:51:19.510Z,37.98
2019-01-30T07:53:49.117Z,42.15
2019-01-30T07:56:18.474Z,32.38
2019-01-30T07:58:47.942Z,31.97
2019-01-30T08:01:17.773Z,34.70
2019-01-30T08:03:47.442Z,33.73
2019-01-30T08:06:16.740Z,39.13
2019-01-30T08:08:46.326Z,31.73
2019-01-30T08:11:15.766Z,37.38
2019-01-30T08:13:45.317Z,32.58
2019-01-30T08:16:14.658Z,33.33
2019-01-30T08:18:44.056Z,38.53
2019-01-30T08:21:13.358Z,31.73
2019-01-30T08:23:42.650Z,32.93
2019-01-30T08:26:12.272Z,33.60
2019-01-30T08:28:42.108Z,36.53
2019-01-30T08:31:11.718Z,28.67
2019-01-30T08:33:40.980Z,33.33
2019-01-30T08:36:10.294Z,34.80
2019-01-30T08:38:40.025Z,34.50
2019-01-30T08:41:09.890Z,33.60
2019-01-30T08:43:40.257Z,35.17
2019-01-30T08:46:10.155Z,28.85
2019-01-30T08:48:39.582Z,34.13
2019-01-30T08:51:09.901Z,39.60
2019-01-30T08:53:40.454Z,32.90
2019-01-30T08:56:09.860Z,35.68
2019-01-30T08:58:39.141Z,42.33
2019-01-30T09:01:08.950Z,36.85
2019-01-30T09:03:38.278Z,33.45
2019-01-30T09:06:07.580Z,34.33
2019-01-30T09:08:38.239Z,34.73
2019-01-30T09:11:08.472Z,41.88
2019-01-30T09:13:38.505Z,39.98
2019-01-30T09:16:08.989Z,37.65
2019-01-30T09:18:38.342Z,41.95
2019-01-30T09:21:07.717Z,38.95
2019-01-30T09:23:40.051Z,47.62
2019-01-30T09:26:09.617Z,42.90
2019-01-30T09:28:40.558Z,38.25
2019-01-30T09:31:11.705Z,42.35
2019-01-30T09:33:41.979Z,45.43
2019-01-30T09:36:11.560Z,42.95
2019-01-30T09:38:40.843Z,39.88
2019-01-30T09:41:10.298Z,42.75
2019-01-30T09:43:40.720Z,38.05
2019-01-30T09:46:10.759Z,33.58
2019-01-30T09:48:40.210Z,38.73
2019-01-30T09:51:10.040Z,35.28
2019-01-30T09:53:39.525Z,36.63
2019-01-30T09:56:11.199Z,38.75
2019-01-30T11:08:09.754Z,45.67
2019-01-30T11:10:44.090Z,41.80
2019-01-30T11:13:19.540Z,50.92
2019-01-30T11:16:02.278Z,45.35
2019-01-30T11:18:34.750Z,46.80
2019-01-30T11:21:31.000Z,51.68
2019-01-30T11:28:15.967Z,45.92
2019-01-30T11:34:14.096Z,46.23
2019-01-30T11:37:03.550Z,43.85
2019-01-30T11:39:35.960Z,52.60
2019-01-30T11:42:12.390Z,45.98
2019-01-30T11:44:52.618Z,38.92
2019-01-30T11:47:39.835Z,45.65
2019-01-30T11:50:23.338Z,48.10
2019-01-30T11:53:20.654Z,40.30
2019-01-30T11:55:53.616Z,44.48
2019-01-30T11:58:27.633Z,39.00
2019-01-30T12:01:16.813Z,46.05
2019-01-30T12:03:47.382Z,38.80
2019-01-30T12:06:16.740Z,41.20
2019-01-30T12:08:50.279Z,38.45
2019-01-30T12:11:20.841Z,40.83
2019-01-30T12:13:51.451Z,40.95
2019-01-30T12:16:20.839Z,44.70
2019-01-30T12:18:50.193Z,44.40
2019-01-30T12:21:19.895Z,42.55
2019-01-30T12:23:49.338Z,45.30
2019-01-30T12:26:19.028Z,46.65
2019-01-30T12:28:50.375Z,50.63
2019-01-30T12:31:19.747Z,48.63
2019-01-30T12:33:49.520Z,50.40
2019-01-30T12:36:18.834Z,46.30
2019-01-30T12:38:48.375Z,50.17
2019-01-30T12:41:17.879Z,44.25
2019-01-30T12:43:47.268Z,50.05
2019-01-30T12:46:16.927Z,45.28
2019-01-30T12:48:48.815Z,48.75
2019-01-30T12:51:22.028Z,46.30
2019-01-30T12:53:51.446Z,45.05
2019-01-30T12:56:20.870Z,45.00
2019-01-30T12:58:50.547Z,43.73
2019-01-30T13:01:20.270Z,41.80
2019-01-30T13:03:49.839Z,54.70
2019-01-30T13:06:19.275Z,44.73
2019-01-30T13:08:48.666Z,41.77
2019-01-30T13:11:17.994Z,46.63
2019-01-30T13:13:47.430Z,47.88
2019-01-30T13:16:17.046Z,37.93
2019-01-30T13:18:46.643Z,49.88
2019-01-30T13:21:16.813Z,39.15
2019-01-30T13:23:46.122Z,38.02
2019-01-30T13:26:15.827Z,36.05
2019-01-30T13:28:45.232Z,35.70
2019-01-30T13:31:14.618Z,26.70
2019-01-30T13:33:43.895Z,27.30
2019-01-30T13:36:13.335Z,21.20
2019-01-30T13:38:42.663Z,24.63
2019-01-30T13:41:11.959Z,24.12
2019-01-30T13:43:41.263Z,25.70
2019-01-30T13:46:10.814Z,24.25
2019-01-30T13:48:40.132Z,18.15
2019-01-30T13:51:11.234Z,19.62
2019-01-30T13:53:40.441Z,17.73
2019-01-30T13:56:10.302Z,18.80
2019-01-30T13:58:43.605Z,20.52
2019-01-30T14:01:17.554Z,19.67
2019-01-30T14:03:44.843Z,19.35
2019-01-30T14:06:14.437Z,20.90
2019-01-30T14:08:43.859Z,23.20
2019-01-30T14:11:13.151Z,24.92
2019-01-30T14:13:42.529Z,23.38
2019-01-30T14:16:11.854Z,26.82
2019-01-30T14:18:41.165Z,26.80
2019-01-30T14:21:10.457Z,26.93
2019-01-30T14:23:39.910Z,29.40
2019-01-30T14:26:11.674Z,28.98
2019-01-30T14:28:41.209Z,30.02
2019-01-30T14:31:10.557Z,34.10
2019-01-30T14:33:40.109Z,28.52
2019-01-30T14:36:09.538Z,28.38
2019-01-30T14:38:39.213Z,28.62
2019-01-30T14:41:08.594Z,31.62
2019-01-30T14:43:38.250Z,29.50
2019-01-30T14:46:07.692Z,33.40
2019-01-30T14:48:36.975Z,33.95
2019-01-30T14:51:06.511Z,31.75
2019-01-30T14:53:35.763Z,32.10
2019-01-30T14:56:05.598Z,31.97
2019-01-30T14:58:34.906Z,30.05
2019-01-30T15:01:04.884Z,31.97
2019-01-30T15:03:34.208Z,26.20
2019-01-30T15:06:03.484Z,29.75
2019-01-30T15:08:33.065Z,27.52
2019-01-30T15:11:02.480Z,27.07
2019-01-30T15:13:31.795Z,34.88
2019-01-30T15:16:01.093Z,28.20
2019-01-30T15:18:30.868Z,27.10
2019-01-30T15:21:00.313Z,29.60
2019-01-30T15:23:29.636Z,29.52
2019-01-30T15:25:59.144Z,26.85
2019-01-30T15:28:28.451Z,23.98
2019-01-30T15:30:57.706Z,25.48
2019-01-30T15:33:27.307Z,21.60
2019-01-30T15:35:57.715Z,21.23
2019-01-30T15:38:27.263Z,23.92
2019-01-30T15:40:56.613Z,21.15
2019-01-30T15:43:25.918Z,17.85
2019-01-30T15:45:55.251Z,18.82
2019-01-30T15:48:24.606Z,20.02
2019-01-30T15:50:54.298Z,13.32
2019-01-30T15:53:25.252Z,21.25
2019-01-30T15:55:54.797Z,19.55
2019-01-30T15:58:24.230Z,14.18
2019-01-30T16:01:23.367Z,12.50
2019-01-30T16:03:52.887Z,13.28
2019-01-30T16:06:22.381Z,10.93
2019-01-30T16:08:51.701Z,12.55
2019-01-30T16:11:20.986Z,15.23
2019-01-30T16:13:51.012Z,12.00
2019-01-30T16:16:37.296Z,10.53
2019-01-30T16:19:08.973Z,12.33
2019-01-30T16:21:38.239Z,14.75
2019-01-30T16:24:09.074Z,12.10
2019-01-30T16:26:39.441Z,12.93
2019-01-30T16:29:26.651Z,11.00
2019-01-30T16:31:56.042Z,10.48
2019-01-30T16:34:26.107Z,10.32
2019-01-30T16:36:55.462Z,14.35
2019-01-30T16:39:24.847Z,11.30
2019-01-30T16:41:55.214Z,13.25
2019-01-30T16:44:25.115Z,14.13
2019-01-30T16:46:55.082Z,12.33
2019-01-30T16:49:24.572Z,13.08
2019-01-30T16:51:54.040Z,10.95
2019-01-30T16:54:23.463Z,14.20
2019-01-30T16:56:52.865Z,14.95
2019-01-30T16:59:22.432Z,14.63
2019-01-30T17:01:52.696Z,15.20
2019-01-30T17:04:23.715Z,18.45
2019-01-30T17:06:55.675Z,14.93
2019-01-30T17:09:26.921Z,20.15
2019-01-30T17:11:56.322Z,13.60
2019-01-30T17:14:25.826Z,15.95
2019-01-30T17:16:55.217Z,15.80
2019-01-30T17:19:24.552Z,18.20
2019-01-30T17:21:53.989Z,13.83
2019-01-30T17:24:25.945Z,17.77
2019-01-30T17:26:55.392Z,19.98
2019-01-30T17:29:24.853Z,21.07
2019-01-30T17:31:54.195Z,23.75
2019-01-30T17:34:23.659Z,18.70
2019-01-30T17:36:53.121Z,20.17
2019-01-30T17:39:22.596Z,19.92
2019-01-30T17:41:51.898Z,14.85
2019-01-30T17:44:21.251Z,24.65
2019-01-30T17:46:50.939Z,15.38
2019-01-30T17:49:20.378Z,21.48
2019-01-30T17:51:49.737Z,23.27
2019-01-30T17:54:22.341Z,17.17
2019-01-30T18:00:25.029Z,15.38
2019-01-30T18:03:13.514Z,15.15
2019-01-30T18:05:49.411Z,19.32
2019-01-30T18:08:19.644Z,16.80
2019-01-30T18:10:48.911Z,18.15
2019-01-30T18:13:18.370Z,13.45
2019-01-30T18:15:47.969Z,17.80
2019-01-30T18:18:17.523Z,12.28
2019-01-30T18:20:46.956Z,18.32
2019-01-30T18:23:16.280Z,16.30
2019-01-30T18:25:45.710Z,27.65
2019-01-30T18:28:15.235Z,14.95
2019-01-30T18:30:44.846Z,15.95
2019-01-30T18:33:14.287Z,16.32
2019-01-30T18:35:43.860Z,17.90
2019-01-30T18:38:13.234Z,14.30
2019-01-30T18:40:42.823Z,15.78
2019-01-30T18:43:12.324Z,19.70
2019-01-30T18:45:41.759Z,15.83
2019-01-30T18:48:11.198Z,12.43
2019-01-30T18:50:40.678Z,20.95
2019-01-30T18:53:10.005Z,18.23
2019-01-30T18:55:39.434Z,16.15
2019-01-30T18:58:10.700Z,15.83
2019-01-30T19:00:45.946Z,21.10
2019-01-30T19:03:17.381Z,20.57
2019-01-30T19:05:46.884Z,21.15
2019-01-30T19:08:16.386Z,15.70
2019-01-30T19:10:46.697Z,15.03
2019-01-30T19:13:15.987Z,19.30
2019-01-30T19:15:45.626Z,22.82
2019-01-30T19:18:16.163Z,19.75
2019-01-30T19:20:48.071Z,32.50
2019-01-30T19:23:17.547Z,17.82
2019-01-30T19:25:47.011Z,21.05
2019-01-30T19:28:16.563Z,28.07
2019-01-30T19:30:46.337Z,17.00
2019-01-30T19:33:17.423Z,21.37
2019-01-30T19:35:47.147Z,24.43
2019-01-30T19:38:18.971Z,25.55
2019-01-30T19:40:48.393Z,22.10
2019-01-30T19:43:17.839Z,21.90
2019-01-30T19:45:47.170Z,22.60
2019-01-30T19:48:17.712Z,18.00
2019-01-30T19:50:47.074Z,20.12
2019-01-30T19:53:16.583Z,24.37
2019-01-30T19:55:47.221Z,23.18
2019-01-30T19:58:16.714Z,28.23
2019-01-30T20:00:49.281Z,22.77
2019-01-30T20:03:21.486Z,22.80
2019-01-30T20:05:50.818Z,23.22
2019-01-30T20:08:24.487Z,20.48
2019-01-30T20:10:53.889Z,23.20
2019-01-30T20:13:25.797Z,22.98
2019-01-30T20:15:55.237Z,39.10
2019-01-30T20:18:24.728Z,32.73
2019-01-30T20:20:54.218Z,23.95
2019-01-30T20:23:23.940Z,23.38
2019-01-30T20:25:53.508Z,28.47
2019-01-30T20:28:23.087Z,25.70
2019-01-30T20:30:54.938Z,23.87
2019-01-30T20:33:24.311Z,26.25
2019-01-30T20:35:57.182Z,26.73
2019-01-30T20:38:28.554Z,25.57
2019-01-30T20:40:57.522Z,28.57
2019-01-30T20:43:26.911Z,29.75
2019-01-30T20:45:56.352Z,24.57
2019-01-30T20:48:25.630Z,29.00
2019-01-30T20:50:56.578Z,25.92
2019-01-30T20:53:27.219Z,27.07
2019-01-30T20:55:56.732Z,33.13
2019-01-30T20:58:27.544Z,28.47
2019-01-30T21:00:56.963Z,35.58
2019-01-30T21:03:29.622Z,28.73
2019-01-30T21:05:58.978Z,29.40
2019-01-30T21:08:30.828Z,29.20
2019-01-30T21:11:03.512Z,28.77
2019-01-30T21:13:34.419Z,36.53
2019-01-30T21:16:05.228Z,31.33
2019-01-30T21:18:34.611Z,29.70
2019-01-30T21:21:04.075Z,33.67
2019-01-30T21:23:35.483Z,29.85
2019-01-30T21:26:08.002Z,52.20
2019-01-30T21:28:40.011Z,31.77
2019-01-30T21:31:12.511Z,36.05
2019-01-30T21:33:45.035Z,33.02
2019-01-30T21:36:15.542Z,29.63
2019-01-30T21:38:47.091Z,40.52
2019-01-30T21:41:18.176Z,38.48
2019-01-30T21:43:50.847Z,34.08
2019-01-30T21:46:20.342Z,37.03
2019-01-30T21:48:49.839Z,36.60
2019-01-30T21:51:19.282Z,41.77
2019-01-30T21:53:48.656Z,44.03
2019-01-30T21:56:18.003Z,39.30
2019-01-30T21:58:47.520Z,38.90
2019-01-30T22:01:16.931Z,40.78
2019-01-30T22:03:46.222Z,38.50
2019-01-30T22:06:15.809Z,34.70
2019-01-30T22:08:45.188Z,39.00
2019-01-30T22:11:14.700Z,39.23
2019-01-30T22:13:44.171Z,40.48
2019-01-30T22:16:13.668Z,34.98
2019-01-30T22:18:43.031Z,39.50
2019-01-30T22:21:12.369Z,37.95
2019-01-30T22:23:41.947Z,39.05
2019-01-30T22:26:11.371Z,32.08
2019-01-30T22:28:41.823Z,34.63
2019-01-30T22:31:11.379Z,34.78
2019-01-30T22:33:40.788Z,44.53
2019-01-30T22:36:10.150Z,37.17
2019-01-30T22:38:39.687Z,39.03
2019-01-30T22:41:09.047Z,36.03
2019-01-30T22:43:40.876Z,38.85
2019-01-30T22:46:10.259Z,42.25
2019-01-30T22:48:39.586Z,39.67
2019-01-30T22:51:08.899Z,36.93
2019-01-30T22:53:38.251Z,37.17
2019-01-30T22:56:07.766Z,37.88
2019-01-30T22:58:37.191Z,40.20
2019-01-30T23:01:53.910Z,37.65
2019-01-30T23:04:32.767Z,40.15
2019-01-30T23:07:46.061Z,38.53
2019-01-30T23:10:56.534Z,39.67
2019-01-30T23:13:37.629Z,45.90
2019-01-30T23:17:06.466Z,39.88
2019-01-30T23:20:09.794Z,41.60
2019-01-30T23:23:06.876Z,45.85
2019-01-30T23:25:48.747Z,42.73
2019-01-30T23:28:55.119Z,45.33
2019-01-30T23:31:38.957Z,41.08
2019-01-30T23:34:34.255Z,38.38
2019-01-30T23:37:40.395Z,45.20
2019-01-30T23:40:51.031Z,43.55
2019-01-30T23:43:55.166Z,45.90
2019-01-30T23:47:06.790Z,43.55
2019-01-30T23:50:10.487Z,43.15
2019-01-30T23:53:17.271Z,43.92
2019-01-30T23:56:11.991Z,51.60
2019-01-30T23:59:16.050Z,51.02
